createdAt,value
2022-09-28T00:01:25.671Z,8.77
2022-09-28T00:03:59.039Z,8.79
2022-09-28T00:06:31.342Z,8.82
2022-09-28T00:09:04.171Z,8.79
2022-09-28T00:11:36.261Z,8.77
2022-09-28T00:14:08.436Z,8.75
2022-09-28T00:16:43.746Z,8.70
2022-09-28T00:19:16.299Z,8.67
2022-09-28T00:21:48.404Z,8.66
2022-09-28T00:24:24.047Z,8.64
2022-09-28T00:27:01.510Z,8.66
2022-09-28T00:29:36.033Z,8.69
2022-09-28T00:32:12.320Z,8.67
2022-09-28T00:34:46.075Z,8.67
2022-09-28T00:37:19.737Z,8.69
2022-09-28T00:39:51.751Z,8.65
2022-09-28T00:42:25.978Z,8.64
2022-09-28T00:44:59.413Z,8.70
2022-09-28T00:47:51.024Z,8.70
2022-09-28T00:50:35.807Z,8.69
2022-09-28T00:53:20.545Z,8.69
2022-09-28T00:56:00.562Z,8.74
2022-09-28T00:58:38.424Z,8.76
2022-09-28T01:01:10.515Z,8.77
2022-09-28T01:03:45.492Z,8.82
2022-09-28T01:06:24.171Z,8.80
2022-09-28T01:08:59.178Z,8.79
2022-09-28T01:11:33.740Z,8.80
2022-09-28T01:14:09.753Z,8.89
2022-09-28T01:16:53.490Z,8.91
2022-09-28T01:20:13.042Z,8.96
2022-09-28T01:23:25.530Z,8.98
2022-09-28T01:26:22.179Z,9.00
2022-09-28T01:29:19.785Z,8.96
2022-09-28T01:32:36.689Z,9.00
2022-09-28T01:35:35.860Z,9.05
2022-09-28T01:38:25.489Z,9.08
2022-09-28T01:40:59.931Z,9.04
2022-09-28T01:43:37.964Z,8.99
2022-09-28T01:46:27.840Z,9.00
2022-09-28T01:49:08.961Z,8.97
2022-09-28T01:52:02.864Z,9.04
2022-09-28T01:54:52.921Z,9.05
2022-09-28T01:57:36.021Z,9.09
2022-09-28T02:00:11.998Z,9.10
2022-09-28T02:02:56.272Z,9.16
2022-09-28T02:05:33.542Z,9.20
2022-09-28T02:08:33.727Z,9.19
2022-09-28T02:11:09.695Z,9.23
2022-09-28T02:13:50.227Z,9.20
2022-09-28T02:16:42.743Z,9.18
2022-09-28T02:19:41.433Z,9.24
2022-09-28T02:22:37.347Z,9.26
2022-09-28T02:25:21.988Z,9.25
2022-09-28T02:28:02.542Z,9.32
2022-09-28T02:30:39.674Z,9.36
2022-09-28T02:33:29.658Z,9.28
2022-09-28T02:36:03.585Z,9.31
2022-09-28T02:38:37.282Z,9.30
2022-09-28T02:41:26.881Z,9.40
2022-09-28T02:44:36.406Z,9.42
2022-09-28T02:47:22.538Z,9.42
2022-09-28T02:50:13.229Z,9.44
2022-09-28T02:53:28.200Z,9.44
2022-09-28T02:56:39.507Z,9.36
2022-09-28T02:59:31.101Z,9.39
2022-09-28T03:02:41.270Z,9.40
2022-09-28T03:05:40.255Z,9.38
2022-09-28T03:08:42.331Z,9.44
2022-09-28T03:11:30.593Z,9.48
2022-09-28T03:14:04.374Z,9.55
2022-09-28T03:16:36.371Z,9.45
2022-09-28T03:19:08.288Z,9.48
2022-09-28T03:21:40.450Z,9.47
2022-09-28T03:24:12.377Z,9.50
2022-09-28T03:26:44.331Z,9.51
2022-09-28T03:29:16.462Z,9.57
2022-09-28T03:31:49.233Z,9.58
2022-09-28T03:34:21.249Z,9.56
2022-09-28T03:36:53.154Z,9.54
2022-09-28T03:39:25.765Z,9.52
2022-09-28T03:42:00.443Z,9.53
2022-09-28T03:44:32.614Z,9.54
2022-09-28T03:47:04.531Z,9.55
2022-09-28T03:49:37.085Z,9.57
2022-09-28T03:52:09.008Z,9.51
2022-09-28T03:54:42.294Z,9.49
2022-09-28T03:57:16.567Z,9.52
2022-09-28T03:59:48.472Z,9.53
2022-09-28T04:02:20.421Z,9.51
2022-09-28T04:04:52.507Z,9.46
2022-09-28T04:07:26.962Z,9.42
2022-09-28T04:10:02.225Z,9.39
2022-09-28T04:12:34.144Z,9.37
2022-09-28T04:15:06.739Z,9.32
2022-09-28T04:17:40.275Z,9.26
2022-09-28T04:20:12.281Z,9.21
2022-09-28T04:22:44.506Z,9.17
2022-09-28T04:25:16.513Z,9.20
2022-09-28T04:28:08.358Z,9.19
2022-09-28T04:30:40.251Z,9.12
2022-09-28T04:33:12.178Z,9.03
2022-09-28T04:35:44.194Z,8.99
2022-09-28T04:38:23.483Z,8.92
2022-09-28T04:41:07.964Z,8.92
2022-09-28T04:43:39.887Z,8.84
2022-09-28T04:46:12.102Z,8.83
2022-09-28T04:48:44.188Z,8.87
2022-09-28T04:51:16.234Z,8.82
2022-09-28T04:53:48.250Z,8.78
2022-09-28T04:56:20.204Z,8.70
2022-09-28T04:58:53.004Z,8.65
2022-09-28T05:01:25.783Z,8.59
2022-09-28T05:03:57.845Z,8.54
2022-09-28T05:06:30.823Z,8.55
2022-09-28T05:09:02.797Z,8.47
2022-09-28T05:11:34.734Z,8.52
2022-09-28T05:14:06.696Z,8.53
2022-09-28T05:16:38.685Z,8.54
2022-09-28T05:19:11.728Z,8.58
2022-09-28T05:21:45.852Z,8.59
2022-09-28T05:24:17.809Z,8.67
2022-09-28T05:26:49.854Z,8.70
2022-09-28T05:29:21.773Z,8.75
2022-09-28T05:31:53.785Z,8.78
2022-09-28T05:34:25.886Z,8.80
2022-09-28T05:36:57.826Z,8.76
2022-09-28T05:39:29.798Z,8.75
2022-09-28T05:42:01.792Z,8.74
2022-09-28T05:44:33.795Z,8.74
2022-09-28T05:47:05.924Z,8.70
2022-09-28T05:49:37.855Z,8.73
2022-09-28T05:52:09.751Z,8.75
2022-09-28T05:54:41.681Z,8.76
2022-09-28T05:57:14.893Z,8.78
2022-09-28T05:59:46.966Z,8.75
2022-09-28T06:02:18.933Z,8.75
2022-09-28T06:04:51.320Z,8.69
2022-09-28T06:07:23.982Z,8.61
2022-09-28T06:09:56.026Z,8.63
2022-09-28T06:12:28.038Z,8.62
2022-09-28T06:15:01.295Z,8.66
2022-09-28T06:17:33.399Z,8.72
2022-09-28T06:20:06.073Z,8.76
2022-09-28T06:22:38.908Z,8.86
2022-09-28T06:25:11.033Z,8.95
2022-09-28T06:27:43.217Z,8.90
2022-09-28T06:30:15.165Z,8.90
2022-09-28T06:32:47.099Z,8.97
2022-09-28T06:35:19.060Z,8.99
2022-09-28T06:37:51.379Z,9.01
2022-09-28T06:40:24.104Z,9.04
2022-09-28T06:43:10.705Z,8.98
2022-09-28T06:45:43.593Z,8.94
2022-09-28T06:48:16.592Z,8.94
2022-09-28T06:50:50.920Z,9.03
2022-09-28T06:53:23.782Z,9.09
2022-09-28T06:55:58.953Z,9.12
2022-09-28T06:58:32.377Z,9.17
2022-09-28T07:01:04.621Z,9.19
2022-09-28T07:03:36.789Z,9.23
2022-09-28T07:06:12.500Z,9.32
2022-09-28T07:08:47.381Z,9.36
2022-09-28T07:11:27.018Z,9.31
2022-09-28T07:13:58.946Z,9.35
2022-09-28T07:16:51.929Z,9.30
2022-09-28T07:19:22.833Z,9.30
2022-09-28T07:22:04.241Z,9.39
2022-09-28T07:24:37.261Z,9.42
2022-09-28T07:27:09.657Z,9.51
2022-09-28T07:29:41.667Z,9.52
2022-09-28T07:32:13.625Z,9.59
2022-09-28T07:34:45.700Z,9.55
2022-09-28T07:37:19.019Z,9.54
2022-09-28T07:40:09.375Z,9.55
2022-09-28T07:42:41.702Z,9.76
2022-09-28T07:45:13.743Z,10.01
2022-09-28T07:47:45.954Z,10.14
2022-09-28T07:50:18.212Z,10.02
2022-09-28T07:52:50.238Z,10.09
2022-09-28T07:55:22.165Z,10.25
2022-09-28T07:58:01.773Z,10.29
2022-09-28T08:00:34.354Z,10.32
2022-09-28T08:03:06.449Z,10.46
2022-09-28T08:05:39.194Z,10.66
2022-09-28T08:08:11.351Z,10.92
2022-09-28T08:10:47.163Z,10.83
2022-09-28T08:13:22.249Z,11.03
2022-09-28T08:15:55.778Z,11.11
2022-09-28T08:18:27.742Z,11.05
2022-09-28T08:21:18.015Z,11.16
2022-09-28T08:23:50.739Z,11.18
2022-09-28T08:26:22.685Z,11.14
2022-09-28T08:28:54.586Z,11.04
2022-09-28T08:31:26.503Z,10.89
2022-09-28T08:33:58.407Z,10.81
2022-09-28T08:36:30.348Z,10.80
2022-09-28T08:39:02.374Z,10.55
2022-09-28T08:42:10.635Z,10.60
2022-09-28T08:44:57.206Z,10.61
2022-09-28T08:48:02.938Z,10.70
2022-09-28T08:50:48.492Z,10.70
2022-09-28T08:53:42.379Z,10.75
2022-09-28T08:56:41.653Z,10.63
2022-09-28T08:59:22.253Z,10.48
2022-09-28T09:02:06.125Z,10.65
2022-09-28T09:04:38.129Z,10.74
2022-09-28T09:07:28.446Z,10.69
2022-09-28T09:10:28.693Z,10.89
2022-09-28T09:13:27.975Z,11.08
2022-09-28T09:16:45.669Z,11.05
2022-09-28T09:20:18.837Z,10.99
2022-09-28T09:23:00.984Z,11.08
2022-09-28T09:25:49.793Z,11.14
2022-09-28T09:28:52.493Z,11.23
2022-09-28T09:34:26.600Z,11.13
2022-09-28T09:37:24.259Z,11.07
2022-09-28T09:40:56.588Z,11.04
2022-09-28T09:44:16.605Z,10.98
2022-09-28T09:47:04.697Z,10.92
2022-09-28T09:50:05.490Z,10.91
2022-09-28T09:52:55.297Z,11.00
2022-09-28T09:55:37.230Z,11.07
2022-09-28T09:58:22.754Z,11.23
2022-09-28T10:01:01.822Z,11.45
2022-09-28T10:03:37.114Z,11.38
2022-09-28T10:06:26.541Z,11.46
2022-09-28T10:09:08.879Z,11.60
2022-09-28T10:11:45.811Z,11.71
2022-09-28T10:14:24.181Z,12.00
2022-09-28T10:16:57.863Z,11.93
2022-09-28T10:19:35.057Z,11.86
2022-09-28T10:22:07.700Z,11.62
2022-09-28T10:24:46.404Z,12.43
2022-09-28T10:27:24.179Z,13.77
2022-09-28T10:30:08.264Z,15.51
2022-09-28T10:32:46.606Z,16.49
2022-09-28T10:35:18.667Z,17.02
2022-09-28T10:38:14.278Z,17.54
2022-09-28T10:41:01.926Z,18.90
2022-09-28T10:43:39.576Z,19.85
2022-09-28T10:46:14.279Z,20.01
2022-09-28T10:48:54.681Z,20.61
2022-09-28T10:51:56.302Z,21.54
2022-09-28T10:54:31.427Z,21.55
2022-09-28T10:57:03.692Z,20.76
2022-09-28T10:59:40.902Z,20.09
2022-09-28T11:02:27.273Z,18.63
2022-09-28T11:05:03.119Z,17.62
2022-09-28T11:07:46.661Z,17.12
2022-09-28T11:10:25.183Z,16.99
2022-09-28T11:12:58.109Z,16.72
2022-09-28T11:15:33.283Z,16.48
2022-09-28T11:18:32.571Z,16.37
2022-09-28T11:21:12.531Z,16.35
2022-09-28T11:24:07.065Z,17.12
2022-09-28T11:26:43.751Z,17.39
2022-09-28T11:29:41.972Z,18.51
2022-09-28T11:32:16.017Z,18.38
2022-09-28T11:35:05.235Z,18.82
2022-09-28T11:38:23.720Z,20.47
2022-09-28T11:41:20.358Z,22.10
2022-09-28T11:44:07.000Z,23.49
2022-09-28T11:47:09.786Z,24.19
2022-09-28T11:49:52.791Z,24.96
2022-09-28T11:52:45.586Z,24.22
2022-09-28T11:55:34.463Z,23.61
2022-09-28T11:58:31.024Z,21.20
2022-09-28T12:01:35.593Z,19.27
2022-09-28T12:04:18.080Z,18.39
2022-09-28T12:07:12.724Z,17.95
2022-09-28T12:09:55.385Z,17.66
2022-09-28T12:13:01.305Z,17.53
2022-09-28T12:19:18.723Z,16.55
2022-09-28T12:22:01.212Z,16.58
2022-09-28T12:25:00.068Z,16.71
2022-09-28T12:27:52.969Z,16.79
2022-09-28T12:30:25.864Z,16.73
2022-09-28T12:33:16.035Z,16.14
2022-09-28T12:36:28.545Z,15.60
2022-09-28T12:39:53.413Z,15.04
2022-09-28T12:43:10.626Z,14.55
2022-09-28T12:46:17.282Z,14.32
2022-09-28T12:50:13.770Z,14.21
2022-09-28T12:52:25.002Z,14.08
2022-09-28T12:55:41.169Z,13.75
2022-09-28T12:59:06.275Z,13.77
2022-09-28T13:02:14.414Z,13.77
2022-09-28T13:05:23.978Z,13.61
2022-09-28T13:08:10.954Z,13.62
2022-09-28T13:10:51.593Z,13.68
2022-09-28T13:13:56.357Z,13.74
2022-09-28T13:16:59.780Z,13.83
2022-09-28T13:19:58.090Z,13.88
2022-09-28T13:22:44.482Z,14.05
2022-09-28T13:25:20.830Z,14.20
2022-09-28T13:28:05.231Z,14.34
2022-09-28T13:30:40.403Z,14.52
2022-09-28T13:33:44.568Z,14.94
2022-09-28T13:36:47.872Z,15.07
2022-09-28T13:39:46.896Z,15.07
2022-09-28T13:42:56.397Z,15.19
2022-09-28T13:45:53.520Z,15.07
2022-09-28T13:48:50.648Z,15.08
2022-09-28T13:52:06.765Z,14.97
2022-09-28T13:55:03.783Z,14.93
2022-09-28T13:57:54.262Z,14.93
2022-09-28T14:00:51.393Z,14.82
2022-09-28T14:04:06.785Z,14.99
2022-09-28T14:06:48.093Z,15.16
2022-09-28T14:09:47.822Z,14.99
2022-09-28T14:12:50.327Z,14.67
2022-09-28T14:15:37.658Z,14.32
2022-09-28T14:18:33.236Z,14.24
2022-09-28T14:21:20.623Z,14.12
2022-09-28T14:24:08.107Z,13.88
2022-09-28T14:27:26.754Z,13.90
2022-09-28T14:30:24.294Z,13.81
2022-09-28T14:32:59.840Z,13.72
2022-09-28T14:35:34.293Z,13.55
2022-09-28T14:38:37.176Z,13.54
2022-09-28T14:41:33.878Z,13.59
2022-09-28T14:44:18.892Z,13.74
2022-09-28T14:47:44.260Z,13.91
2022-09-28T14:50:26.072Z,13.96
2022-09-28T14:53:06.587Z,14.10
2022-09-28T14:55:50.300Z,14.07
2022-09-28T14:58:27.590Z,14.15
2022-09-28T15:01:12.944Z,14.12
2022-09-28T15:03:48.894Z,14.02
2022-09-28T15:06:24.165Z,14.06
2022-09-28T15:08:56.225Z,14.09
2022-09-28T15:11:28.166Z,13.98
2022-09-28T15:14:08.351Z,13.98
2022-09-28T15:16:40.405Z,13.77
2022-09-28T15:20:08.916Z,13.76
2022-09-28T15:22:49.649Z,13.77
2022-09-28T15:25:25.023Z,13.86
2022-09-28T15:28:02.449Z,13.92
2022-09-28T15:30:36.542Z,13.96
2022-09-28T15:33:49.052Z,13.94
2022-09-28T15:36:26.766Z,13.90
2022-09-28T15:39:30.142Z,13.85
2022-09-28T15:42:02.597Z,13.89
2022-09-28T15:44:38.622Z,13.90
2022-09-28T15:47:26.830Z,13.90
2022-09-28T15:50:19.575Z,13.79
2022-09-28T15:53:01.189Z,13.75
2022-09-28T15:55:40.044Z,13.70
2022-09-28T15:58:21.105Z,13.60
2022-09-28T16:01:36.741Z,13.49
2022-09-28T16:04:48.208Z,13.34
2022-09-28T16:07:23.398Z,13.33
2022-09-28T16:10:25.647Z,13.23
2022-09-28T16:13:14.437Z,13.24
2022-09-28T16:15:46.486Z,13.24
2022-09-28T16:18:22.261Z,13.19
2022-09-28T16:21:45.606Z,13.07
2022-09-28T16:24:30.560Z,13.06
2022-09-28T16:27:16.404Z,13.03
2022-09-28T16:30:16.738Z,12.99
2022-09-28T16:33:08.584Z,12.93
2022-09-28T16:35:40.416Z,12.89
2022-09-28T16:38:18.261Z,12.89
2022-09-28T16:40:54.952Z,12.90
2022-09-28T16:43:30.318Z,12.86
2022-09-28T16:46:14.470Z,12.81
2022-09-28T16:48:51.027Z,12.78
2022-09-28T16:51:23.697Z,12.75
2022-09-28T16:54:18.989Z,12.70
2022-09-28T16:56:51.057Z,12.68
2022-09-28T16:59:23.102Z,12.65
2022-09-28T17:01:56.819Z,12.58
2022-09-28T17:04:28.771Z,12.51
2022-09-28T17:07:00.853Z,12.45
2022-09-28T17:09:33.222Z,12.39
2022-09-28T17:12:23.028Z,12.30
2022-09-28T17:14:55.382Z,12.25
2022-09-28T17:17:30.002Z,12.22
2022-09-28T17:20:13.231Z,12.14
2022-09-28T17:22:45.289Z,12.09
2022-09-28T17:25:18.127Z,12.02
2022-09-28T17:27:51.089Z,11.96
2022-09-28T17:30:23.745Z,11.89
2022-09-28T17:33:00.095Z,11.83
2022-09-28T17:35:34.160Z,11.78
2022-09-28T17:38:15.403Z,11.73
2022-09-28T17:40:48.307Z,11.70
2022-09-28T17:43:22.246Z,11.66
2022-09-28T17:45:54.231Z,11.63
2022-09-28T17:48:27.268Z,11.61
2022-09-28T17:50:59.957Z,11.59
2022-09-28T17:53:31.927Z,11.58
2022-09-28T17:56:03.889Z,11.54
2022-09-28T17:58:36.242Z,11.52
2022-09-28T18:01:09.326Z,11.50
2022-09-28T18:03:42.218Z,11.48
2022-09-28T18:06:20.089Z,11.46
2022-09-28T18:08:52.096Z,11.42
2022-09-28T18:11:24.074Z,11.39
2022-09-28T18:13:56.030Z,11.35
2022-09-28T18:16:28.932Z,11.33
2022-09-28T18:19:01.113Z,11.28
2022-09-28T18:21:33.566Z,11.27
2022-09-28T18:24:05.744Z,11.23
2022-09-28T18:26:37.874Z,11.17
2022-09-28T18:29:10.840Z,11.17
2022-09-28T18:31:42.885Z,11.13
2022-09-28T18:34:15.717Z,11.13
2022-09-28T18:36:47.880Z,11.08
2022-09-28T18:39:19.996Z,11.09
2022-09-28T18:41:52.279Z,11.05
2022-09-28T18:44:24.484Z,11.06
2022-09-28T18:46:56.482Z,11.06
2022-09-28T18:49:31.195Z,11.02
2022-09-28T18:52:03.682Z,11.01
2022-09-28T18:54:35.718Z,10.99
2022-09-28T18:57:07.748Z,11.01
2022-09-28T18:59:39.682Z,10.96
2022-09-28T19:02:12.085Z,10.88
2022-09-28T19:04:44.279Z,10.84
2022-09-28T19:07:17.299Z,10.91
2022-09-28T19:09:50.237Z,10.91
2022-09-28T19:12:22.362Z,10.93
2022-09-28T19:14:54.374Z,10.93
2022-09-28T19:17:26.488Z,10.91
2022-09-28T19:19:58.905Z,10.89
2022-09-28T19:22:31.454Z,10.91
2022-09-28T19:25:03.462Z,10.86
2022-09-28T19:27:35.826Z,10.84
2022-09-28T19:30:08.815Z,10.83
2022-09-28T19:32:42.123Z,10.80
2022-09-28T19:35:14.129Z,10.79
2022-09-28T19:37:46.886Z,10.76
2022-09-28T19:40:18.896Z,10.70
2022-09-28T19:42:50.897Z,10.68
2022-09-28T19:45:23.702Z,10.66
2022-09-28T19:47:59.548Z,10.66
2022-09-28T19:50:32.426Z,10.66
2022-09-28T19:53:07.281Z,10.67
2022-09-28T19:55:40.923Z,10.64
2022-09-28T19:58:12.889Z,10.59
2022-09-28T20:00:44.815Z,10.51
2022-09-28T20:03:18.826Z,10.55
2022-09-28T20:05:57.637Z,10.52
2022-09-28T20:08:33.055Z,10.54
2022-09-28T20:11:05.544Z,10.57
2022-09-28T20:13:37.861Z,10.56
2022-09-28T20:16:14.322Z,10.52
2022-09-28T20:18:50.389Z,10.50
2022-09-28T20:21:26.774Z,10.44
2022-09-28T20:23:59.098Z,10.44
2022-09-28T20:26:37.370Z,10.39
2022-09-28T20:29:09.893Z,10.41
2022-09-28T20:31:42.795Z,10.35
2022-09-28T20:34:15.006Z,10.32
2022-09-28T20:36:46.944Z,10.37
2022-09-28T20:39:19.123Z,10.39
2022-09-28T20:41:51.154Z,10.35
2022-09-28T20:44:23.196Z,10.34
2022-09-28T20:46:56.741Z,10.32
2022-09-28T20:49:28.817Z,10.31
2022-09-28T20:52:00.835Z,10.29
2022-09-28T20:54:32.840Z,10.30
2022-09-28T20:57:17.553Z,10.27
2022-09-28T20:59:54.583Z,10.17
2022-09-28T21:02:26.962Z,10.15
2022-09-28T21:04:58.982Z,10.18
2022-09-28T21:07:31.141Z,10.15
2022-09-28T21:10:03.153Z,10.19
2022-09-28T21:12:35.046Z,10.22
2022-09-28T21:15:07.664Z,10.14
2022-09-28T21:17:39.624Z,10.16
2022-09-28T21:20:11.567Z,10.24
2022-09-28T21:22:43.531Z,10.18
2022-09-28T21:25:15.549Z,10.15
2022-09-28T21:27:47.967Z,10.14
2022-09-28T21:30:20.180Z,10.13
2022-09-28T21:32:52.238Z,10.05
2022-09-28T21:35:24.401Z,10.04
2022-09-28T21:37:56.366Z,10.00
2022-09-28T21:40:28.334Z,9.98
2022-09-28T21:43:00.430Z,9.95
2022-09-28T21:45:32.899Z,9.98
2022-09-28T21:48:05.154Z,9.99
2022-09-28T21:50:37.107Z,9.94
2022-09-28T21:53:09.020Z,9.95
2022-09-28T21:55:40.942Z,9.85
2022-09-28T21:58:12.903Z,9.82
2022-09-28T22:00:44.831Z,9.78
2022-09-28T22:03:17.257Z,9.79
2022-09-28T22:05:52.232Z,9.81
2022-09-28T22:08:25.371Z,9.81
2022-09-28T22:11:12.108Z,9.76
2022-09-28T22:13:53.634Z,9.68
2022-09-28T22:16:29.348Z,9.62
2022-09-28T22:19:01.664Z,9.65
2022-09-28T22:21:35.100Z,9.65
2022-09-28T22:24:07.849Z,9.68
2022-09-28T22:26:40.543Z,9.72
2022-09-28T22:29:12.538Z,9.72
2022-09-28T22:31:44.510Z,9.68
2022-09-28T22:34:16.501Z,9.68
2022-09-28T22:36:48.439Z,9.72
2022-09-28T22:39:20.359Z,9.72
2022-09-28T22:41:52.653Z,9.69
2022-09-28T22:44:25.528Z,9.67
2022-09-28T22:46:57.529Z,9.69
2022-09-28T22:49:29.922Z,9.74
2022-09-28T22:52:02.103Z,9.74
2022-09-28T22:54:34.112Z,9.71
2022-09-28T22:57:06.311Z,9.69
2022-09-28T22:59:38.361Z,9.72
2022-09-28T23:02:10.305Z,9.73
2022-09-28T23:04:42.303Z,9.76
2022-09-28T23:07:14.244Z,9.77
2022-09-28T23:09:46.155Z,9.78
2022-09-28T23:12:18.065Z,9.79
2022-09-28T23:14:49.967Z,9.85
2022-09-28T23:17:21.992Z,9.85
2022-09-28T23:19:53.964Z,9.82
2022-09-28T23:22:27.450Z,9.83
2022-09-28T23:24:59.943Z,9.77
2022-09-28T23:27:31.978Z,9.74
2022-09-28T23:30:04.174Z,9.63
2022-09-28T23:32:36.217Z,9.59
2022-09-28T23:35:09.110Z,9.53
2022-09-28T23:37:41.078Z,9.52
2022-09-28T23:40:13.097Z,9.45
2022-09-28T23:42:45.144Z,9.42
2022-09-28T23:45:17.042Z,9.35
2022-09-28T23:47:49.112Z,9.28
2022-09-28T23:50:20.997Z,9.20
2022-09-28T23:52:53.111Z,9.16
2022-09-28T23:55:25.046Z,9.22
2022-09-28T23:57:58.233Z,9.25
